Time;durP1;ratioP1;P1;durP2;ratioP2;P2;SDS_P1;SDS_P2;PMS_P1;PMS_P2;Temp;Humidity;BMP_temperature;BMP_pressure;BME280_temperature;BME280_humidity;BME280_pressure;Samples;Min_cycle;Max_cycle;Signal;HPM_P1;HPM_P2
2022/08/17 00:04:19;;;;;;;2.22;2.22;;;;;;;;;;10501010;28;20229;-68
2022/08/17 00:09:20;;;;;;;1.75;1.75;;;;;;;;;;10494439;28;20297;-67
2022/08/17 00:14:21;;;;;;;2.40;2.30;;;;;;;;;;10490064;28;20209;-65
2022/08/17 00:19:23;;;;;;;1.80;1.80;;;;;;;;;;10499459;28;20228;-67
2022/08/17 00:24:24;;;;;;;2.35;2.28;;;;;;;;;;10497867;28;20591;-67
2022/08/17 00:29:25;;;;;;;2.15;2.15;;;;;;;;;;10502216;28;20664;-68
2022/08/17 00:34:26;;;;;;;2.42;2.33;;;;;;;;;;10494234;28;21032;-68
2022/08/17 00:39:27;;;;;;;2.40;2.30;;;;;;;;;;10457370;28;20256;-68
2022/08/17 00:44:28;;;;;;;2.83;2.72;;;;;;;;;;10485294;28;20309;-68
2022/08/17 00:49:30;;;;;;;2.13;2.03;;;;;;;;;;10492777;28;20241;-68
2022/08/17 00:54:33;;;;;;;3.00;2.90;;;;;;;;;;10465680;28;20256;-68
2022/08/17 00:59:36;;;;;;;2.70;2.60;;;;;;;;;;10493420;28;20239;-67
2022/08/17 01:04:38;;;;;;;3.00;2.72;;;;;;;;;;10490136;28;20225;-67
2022/08/17 01:09:39;;;;;;;2.80;2.70;;;;;;;;;;10487080;28;20210;-68
2022/08/17 01:14:41;;;;;;;2.90;2.80;;;;;;;;;;10472375;28;20308;-68
2022/08/17 01:19:42;;;;;;;3.58;3.17;;;;;;;;;;10492136;28;20205;-68
2022/08/17 01:24:46;;;;;;;3.33;3.13;;;;;;;;;;10447114;28;20246;-67
2022/08/17 01:29:49;;;;;;;3.47;3.38;;;;;;;;;;10484076;28;20206;-68
2022/08/17 01:34:51;;;;;;;3.33;3.22;;;;;;;;;;10487068;28;20213;-67
2022/08/17 01:39:55;;;;;;;2.63;2.63;;;;;;;;;;10497640;28;20224;-68
2022/08/17 01:44:58;;;;;;;3.42;3.15;;;;;;;;;;10494635;28;20214;-67
2022/08/17 01:50:04;;;;;;;3.15;3.05;;;;;;;;;;10493315;28;20222;-66
2022/08/17 01:55:06;;;;;;;3.25;3.05;;;;;;;;;;10497091;28;20352;-67
2022/08/17 02:00:09;;;;;;;2.45;2.35;;;;;;;;;;10494074;28;20237;-68
2022/08/17 02:05:12;;;;;;;3.03;2.92;;;;;;;;;;10496537;28;20811;-67
2022/08/17 02:10:13;;;;;;;4.07;2.97;;;;;;;;;;10487852;28;20174;-69
2022/08/17 02:15:14;;;;;;;2.85;2.75;;;;;;;;;;10493123;28;20197;-67
2022/08/17 02:20:15;;;;;;;3.13;3.03;;;;;;;;;;10493935;28;20209;-67
2022/08/17 02:25:19;;;;;;;3.55;3.35;;;;;;;;;;10493916;28;20216;-68
2022/08/17 02:30:25;;;;;;;4.00;3.80;;;;;;;;;;10494635;28;20320;-67
2022/08/17 02:35:26;;;;;;;3.22;3.13;;;;;;;;;;10487754;28;20185;-68
2022/08/17 02:40:27;;;;;;;3.50;3.30;;;;;;;;;;10486648;28;20230;-68
2022/08/17 02:45:28;;;;;;;3.40;3.30;;;;;;;;;;10492668;28;20198;-68
2022/08/17 02:50:29;;;;;;;2.65;2.50;;;;;;;;;;10463717;28;20776;-68
2022/08/17 02:55:33;;;;;;;4.30;4.00;;;;;;;;;;10493313;28;20310;-66
2022/08/17 03:00:35;;;;;;;3.60;3.50;;;;;;;;;;10472355;28;20244;-67
2022/08/17 03:05:38;;;;;;;3.40;3.20;;;;;;;;;;10493548;28;20678;-67
2022/08/17 03:10:39;;;;;;;3.67;3.47;;;;;;;;;;10487472;28;20596;-70
2022/08/17 03:15:40;;;;;;;4.10;3.90;;;;;;;;;;10484741;28;20837;-68
2022/08/17 03:20:41;;;;;;;3.45;3.25;;;;;;;;;;10491450;28;20214;-68
2022/08/17 03:25:45;;;;;;;4.07;3.88;;;;;;;;;;10462044;28;20214;-67
2022/08/17 03:30:46;;;;;;;3.95;3.80;;;;;;;;;;10488742;28;20236;-68
2022/08/17 03:35:47;;;;;;;3.88;3.67;;;;;;;;;;10488386;28;21240;-68
2022/08/17 03:40:48;;;;;;;4.10;3.92;;;;;;;;;;10459454;28;21043;-68
2022/08/17 03:56:42;;;;;;;4.20;4.00;;;;;;;;;;10488713;28;20341;-67
2022/08/17 04:01:47;;;;;;;4.30;4.03;;;;;;;;;;10492391;28;20221;-67
2022/08/17 04:06:48;;;;;;;3.92;3.72;;;;;;;;;;10493250;28;20223;-67
2022/08/17 04:11:49;;;;;;;4.50;4.30;;;;;;;;;;10488214;28;20213;-67
2022/08/17 04:16:50;;;;;;;4.20;4.03;;;;;;;;;;10490851;28;20206;-67
2022/08/17 04:21:51;;;;;;;4.78;4.47;;;;;;;;;;10488608;28;20233;-68
2022/08/17 04:26:53;;;;;;;4.57;4.28;;;;;;;;;;10490604;28;20205;-67
2022/08/17 04:31:54;;;;;;;4.40;4.10;;;;;;;;;;10473968;28;20224;-68
2022/08/17 04:36:55;;;;;;;4.78;4.40;;;;;;;;;;10485154;28;20217;-66
2022/08/17 04:42:05;;;;;;;4.93;4.55;;;;;;;;;;10484459;28;20224;-65
2022/08/17 04:47:06;;;;;;;5.72;5.38;;;;;;;;;;10492391;28;20226;-64
2022/08/17 04:52:07;;;;;;;6.60;6.00;;;;;;;;;;10479579;28;20653;-63
2022/08/17 04:57:08;;;;;;;6.35;5.07;;;;;;;;;;10483009;28;20208;-63
2022/08/17 05:02:12;;;;;;;6.28;5.78;;;;;;;;;;10488979;28;20225;-63
2022/08/17 05:07:13;;;;;;;4.78;4.50;;;;;;;;;;10486712;28;20236;-63
2022/08/17 05:12:15;;;;;;;5.63;5.15;;;;;;;;;;10488007;28;20225;-63
2022/08/17 05:17:16;;;;;;;5.68;5.28;;;;;;;;;;10489738;28;20237;-64
2022/08/17 05:22:17;;;;;;;6.47;6.03;;;;;;;;;;10459822;28;20832;-64
2022/08/17 05:27:18;;;;;;;6.45;5.95;;;;;;;;;;10492009;28;20221;-64
2022/08/17 05:32:21;;;;;;;6.80;6.30;;;;;;;;;;10499098;28;20241;-62
2022/08/17 05:37:22;;;;;;;6.97;6.32;;;;;;;;;;10495487;28;20222;-64
2022/08/17 05:42:23;;;;;;;6.93;6.43;;;;;;;;;;10493854;28;20246;-63
2022/08/17 05:47:25;;;;;;;8.02;7.25;;;;;;;;;;10456932;28;20213;-64
2022/08/17 05:52:53;;;;;;;7.80;7.10;;;;;;;;;;10483170;28;20221;-64
2022/08/17 05:58:03;;;;;;;7.78;7.00;;;;;;;;;;10451559;28;20217;-64
2022/08/17 06:03:10;;;;;;;7.20;6.68;;;;;;;;;;10483170;28;20234;-64
2022/08/17 06:08:29;;;;;;;8.07;7.35;;;;;;;;;;10480050;28;20218;-64
2022/08/17 06:13:37;;;;;;;6.40;5.90;;;;;;;;;;10465556;28;20221;-64
2022/08/17 06:18:49;;;;;;;7.95;7.20;;;;;;;;;;10486786;28;20285;-64
2022/08/17 06:23:57;;;;;;;6.93;6.30;;;;;;;;;;10489528;28;20224;-64
2022/08/17 06:29:01;;;;;;;7.00;6.32;;;;;;;;;;10483286;28;20209;-64
2022/08/17 06:34:04;;;;;;;8.35;7.60;;;;;;;;;;10486622;28;20218;-64
2022/08/17 06:39:25;;;;;;;6.85;6.43;;;;;;;;;;10459525;28;20312;-64
2022/08/17 06:44:33;;;;;;;7.05;6.45;;;;;;;;;;10488810;28;20224;-64
2022/08/17 06:49:58;;;;;;;8.20;7.40;;;;;;;;;;10489993;28;20214;-64
2022/08/17 06:55:10;;;;;;;6.10;5.70;;;;;;;;;;10476388;28;20214;-66
2022/08/17 07:00:21;;;;;;;6.38;5.88;;;;;;;;;;10487584;28;20223;-67
2022/08/17 07:05:24;;;;;;;6.45;5.85;;;;;;;;;;10484106;28;20226;-67
2022/08/17 07:10:27;;;;;;;6.00;5.60;;;;;;;;;;10458989;28;20225;-66
2022/08/17 07:15:39;;;;;;;6.25;5.85;;;;;;;;;;10448964;28;20177;-67
2022/08/17 07:20:41;;;;;;;6.30;5.80;;;;;;;;;;10468448;28;20217;-66
2022/08/17 07:25:42;;;;;;;5.38;4.88;;;;;;;;;;10462191;28;20293;-67
2022/08/17 07:30:49;;;;;;;5.18;4.88;;;;;;;;;;10482402;28;20209;-67
2022/08/17 07:35:50;;;;;;;4.20;3.90;;;;;;;;;;10483567;28;20580;-66
2022/08/17 07:41:01;;;;;;;4.57;4.30;;;;;;;;;;10484771;28;20225;-66
2022/08/17 07:51:27;;;;;;;5.03;4.65;;;;;;;;;;10482941;28;20225;-67
2022/08/17 07:56:30;;;;;;;3.70;3.60;;;;;;;;;;10480133;28;20225;-67
2022/08/17 08:01:36;;;;;;;3.97;3.78;;;;;;;;;;10476685;28;20221;-68
2022/08/17 08:06:46;;;;;;;2.83;2.72;;;;;;;;;;10447252;28;20218;-67
2022/08/17 08:11:47;;;;;;;2.85;2.85;;;;;;;;;;10438691;28;20277;-67
2022/08/17 08:16:59;;;;;;;2.50;2.40;;;;;;;;;;10426811;28;20233;-67
2022/08/17 08:22:06;;;;;;;1.90;1.88;;;;;;;;;;10430230;28;20219;-66
2022/08/17 08:27:16;;;;;;;1.92;1.92;;;;;;;;;;10450946;28;20255;-67
2022/08/17 08:32:20;;;;;;;2.20;2.20;;;;;;;;;;10443508;28;20226;-66
2022/08/17 08:37:44;;;;;;;2.22;2.20;;;;;;;;;;10444359;28;20210;-67
2022/08/17 08:42:55;;;;;;;1.85;1.77;;;;;;;;;;10444566;28;20214;-67
2022/08/17 08:48:05;;;;;;;1.45;1.45;;;;;;;;;;10442269;28;20733;-64
2022/08/17 08:53:29;;;;;;;1.67;1.67;;;;;;;;;;10443233;28;20246;-68
2022/08/17 08:58:36;;;;;;;2.83;2.15;;;;;;;;;;10449974;28;21126;-67
2022/08/17 09:03:56;;;;;;;1.80;1.70;;;;;;;;;;10452124;28;20299;-67
2022/08/17 09:09:08;;;;;;;1.42;1.40;;;;;;;;;;10488940;28;20210;-66
2022/08/17 09:14:12;;;;;;;1.48;1.48;;;;;;;;;;10471512;28;20301;-67
2022/08/17 09:19:18;;;;;;;1.67;1.67;;;;;;;;;;10476736;28;20249;-67
2022/08/17 09:24:24;;;;;;;1.48;1.40;;;;;;;;;;10493612;28;20221;-67
2022/08/17 09:29:27;;;;;;;1.75;1.65;;;;;;;;;;10491667;28;20214;-66
2022/08/17 09:34:34;;;;;;;1.45;1.35;;;;;;;;;;10486122;28;20228;-66
2022/08/17 09:39:40;;;;;;;1.40;1.40;;;;;;;;;;10486114;28;20709;-67
2022/08/17 09:44:48;;;;;;;1.17;1.15;;;;;;;;;;10482391;28;20225;-67
2022/08/17 09:49:57;;;;;;;1.10;1.10;;;;;;;;;;10486446;28;20210;-67
2022/08/17 09:55:00;;;;;;;1.25;1.00;;;;;;;;;;10461700;28;20241;-67
2022/08/17 10:00:01;;;;;;;1.02;1.02;;;;;;;;;;10439396;28;20210;-67
2022/08/17 10:05:21;;;;;;;0.95;0.95;;;;;;;;;;10433944;28;20237;-65
2022/08/17 10:10:24;;;;;;;1.67;0.85;;;;;;;;;;10439422;28;20221;-67
2022/08/17 10:15:35;;;;;;;0.90;0.90;;;;;;;;;;10475642;28;20190;-67
2022/08/17 10:26:11;;;;;;;0.88;0.88;;;;;;;;;;10480765;28;20218;-67
2022/08/17 10:26:23;;;;;;;1.02;1.02;;;;;;;;;;10490285;28;20649;-66
2022/08/17 10:31:27;;;;;;;2.47;0.93;;;;;;;;;;10484481;28;21007;-69
2022/08/17 10:36:47;;;;;;;0.90;0.90;;;;;;;;;;10462874;28;20216;-68
2022/08/17 10:41:50;;;;;;;1.00;1.00;;;;;;;;;;10477015;28;20245;-67
2022/08/17 10:47:00;;;;;;;0.80;0.80;;;;;;;;;;10483611;28;20233;-68
2022/08/17 10:52:20;;;;;;;0.90;0.90;;;;;;;;;;10493811;28;20214;-68
2022/08/17 10:57:43;;;;;;;0.85;0.85;;;;;;;;;;10491683;28;20576;-68
2022/08/17 11:02:52;;;;;;;1.02;1.02;;;;;;;;;;10482084;28;20229;-69
2022/08/17 11:08:04;;;;;;;0.80;0.80;;;;;;;;;;10486769;28;20213;-69
2022/08/17 11:13:26;;;;;;;0.90;0.90;;;;;;;;;;10425566;28;20696;-68
2022/08/17 11:18:52;;;;;;;1.00;1.00;;;;;;;;;;10439815;28;20217;-68
2022/08/17 11:24:00;;;;;;;0.90;0.90;;;;;;;;;;10446717;28;20244;-68
2022/08/17 11:29:09;;;;;;;0.60;0.60;;;;;;;;;;10453193;28;20210;-68
2022/08/17 11:34:18;;;;;;;1.13;1.13;;;;;;;;;;10446379;28;20675;-68
2022/08/17 11:39:31;;;;;;;1.00;0.98;;;;;;;;;;10444082;28;20305;-68
2022/08/17 11:44:51;;;;;;;0.95;0.95;;;;;;;;;;10474950;28;20217;-70
2022/08/17 11:55:34;;;;;;;0.90;0.90;;;;;;;;;;10475160;28;20210;-68
2022/08/17 12:00:50;;;;;;;0.88;0.88;;;;;;;;;;10475482;28;20370;-68
2022/08/17 12:06:00;;;;;;;0.90;0.90;;;;;;;;;;10494716;28;20296;-68
2022/08/17 12:11:06;;;;;;;2.22;0.80;;;;;;;;;;10470347;28;20217;-68
2022/08/17 12:16:08;;;;;;;0.85;0.85;;;;;;;;;;10495613;28;20550;-67
2022/08/17 12:21:22;;;;;;;0.93;0.93;;;;;;;;;;10490000;28;20252;-68
2022/08/17 12:26:29;;;;;;;2.30;0.90;;;;;;;;;;10464779;28;20210;-68
2022/08/17 12:31:57;;;;;;;1.00;1.00;;;;;;;;;;10490104;28;20213;-68
2022/08/17 12:37:02;;;;;;;1.10;1.10;;;;;;;;;;10483476;28;20728;-68
2022/08/17 12:42:03;;;;;;;0.90;0.90;;;;;;;;;;10471860;28;20209;-68
2022/08/17 12:47:16;;;;;;;1.00;1.00;;;;;;;;;;10482695;28;20218;-68
2022/08/17 12:52:23;;;;;;;0.90;0.90;;;;;;;;;;10494136;28;22724;-68
2022/08/17 12:57:39;;;;;;;1.20;1.20;;;;;;;;;;10496236;28;20267;-67
2022/08/17 13:02:42;;;;;;;0.90;0.90;;;;;;;;;;10482001;28;20252;-68
2022/08/17 13:07:45;;;;;;;1.13;1.13;;;;;;;;;;10480923;28;20216;-69
2022/08/17 13:12:49;;;;;;;1.00;1.00;;;;;;;;;;10464312;28;20221;-69
2022/08/17 13:17:58;;;;;;;1.15;1.15;;;;;;;;;;10440721;28;20264;-67
2022/08/17 13:23:01;;;;;;;0.90;0.90;;;;;;;;;;10437687;28;20227;-67
2022/08/17 13:28:05;;;;;;;0.90;0.90;;;;;;;;;;10446870;28;20207;-67
2022/08/17 13:33:22;;;;;;;1.10;1.10;;;;;;;;;;10473574;28;20217;-67
2022/08/17 13:38:35;;;;;;;1.00;1.00;;;;;;;;;;10453445;28;20315;-68
2022/08/17 13:43:44;;;;;;;0.80;0.80;;;;;;;;;;10489164;28;20588;-67
2022/08/17 13:48:45;;;;;;;0.80;0.80;;;;;;;;;;10462450;28;20243;-68
2022/08/17 13:53:52;;;;;;;0.85;0.85;;;;;;;;;;10478986;28;20262;-68
2022/08/17 13:58:55;;;;;;;1.00;1.00;;;;;;;;;;10486773;28;20224;-68
2022/08/17 14:03:57;;;;;;;1.20;1.20;;;;;;;;;;10496555;28;20573;-68
2022/08/17 14:08:58;;;;;;;0.80;0.80;;;;;;;;;;10500456;28;20205;-65
2022/08/17 14:14:00;;;;;;;1.08;1.08;;;;;;;;;;10501131;28;20232;-66
2022/08/17 14:19:01;;;;;;;1.30;1.30;;;;;;;;;;10496767;28;20214;-66
2022/08/17 14:24:02;;;;;;;0.70;0.70;;;;;;;;;;10498389;28;21006;-66
2022/08/17 14:29:04;;;;;;;1.00;1.00;;;;;;;;;;10500797;28;20210;-68
2022/08/17 14:34:06;;;;;;;0.93;0.93;;;;;;;;;;10466483;28;20216;-67
2022/08/17 14:39:08;;;;;;;0.90;0.90;;;;;;;;;;10495054;28;20236;-67
2022/08/17 14:44:12;;;;;;;0.98;0.98;;;;;;;;;;10495575;28;20316;-67
2022/08/17 14:49:14;;;;;;;1.00;1.00;;;;;;;;;;10491939;28;20649;-68
2022/08/17 14:54:17;;;;;;;0.70;0.70;;;;;;;;;;10485038;28;20873;-68
2022/08/17 14:59:18;;;;;;;0.80;0.80;;;;;;;;;;10494452;28;20218;-68
2022/08/17 15:04:19;;;;;;;0.80;0.80;;;;;;;;;;10459414;28;20227;-68
2022/08/17 15:09:21;;;;;;;0.70;0.70;;;;;;;;;;10455922;28;20215;-67
2022/08/17 15:14:22;;;;;;;0.65;0.65;;;;;;;;;;10494609;28;20689;-66
2022/08/17 15:19:23;;;;;;;0.90;0.90;;;;;;;;;;10481230;28;20232;-68
2022/08/17 15:24:24;;;;;;;0.82;0.70;;;;;;;;;;10496555;28;20229;-68
2022/08/17 15:29:25;;;;;;;0.85;0.85;;;;;;;;;;10497957;28;20217;-67
2022/08/17 15:34:26;;;;;;;1.05;1.05;;;;;;;;;;10494492;28;20267;-67
2022/08/17 15:39:27;;;;;;;0.80;0.80;;;;;;;;;;10494592;28;20217;-67
2022/08/17 15:44:28;;;;;;;0.90;0.90;;;;;;;;;;10456869;28;20252;-68
2022/08/17 15:49:29;;;;;;;0.90;0.90;;;;;;;;;;10491226;28;20727;-67
2022/08/17 15:54:30;;;;;;;0.90;0.90;;;;;;;;;;10485361;28;20230;-68
2022/08/17 15:59:31;;;;;;;0.80;0.80;;;;;;;;;;10476524;28;20238;-69
2022/08/17 16:04:32;;;;;;;1.13;0.98;;;;;;;;;;10490428;28;20327;-67
2022/08/17 16:09:33;;;;;;;0.77;0.77;;;;;;;;;;10488615;28;21033;-67
2022/08/17 16:14:35;;;;;;;0.73;0.73;;;;;;;;;;10494337;28;20222;-68
2022/08/17 16:19:37;;;;;;;0.73;0.73;;;;;;;;;;10490225;28;20266;-67
2022/08/17 16:24:39;;;;;;;0.80;0.80;;;;;;;;;;10463533;28;20226;-68
2022/08/17 16:29:46;;;;;;;0.80;0.80;;;;;;;;;;10493931;28;20876;-68
2022/08/17 16:34:50;;;;;;;0.80;0.80;;;;;;;;;;10466501;28;20220;-68
2022/08/17 16:39:51;;;;;;;1.05;1.05;;;;;;;;;;10481410;28;20668;-68
2022/08/17 16:44:53;;;;;;;0.80;0.80;;;;;;;;;;10493175;28;20221;-68
2022/08/17 16:49:54;;;;;;;0.70;0.70;;;;;;;;;;10490714;28;20593;-68
2022/08/17 16:54:55;;;;;;;0.80;0.80;;;;;;;;;;10499335;28;20222;-68
2022/08/17 16:59:56;;;;;;;1.02;1.02;;;;;;;;;;10491665;28;20644;-69
2022/08/17 17:05:01;;;;;;;0.98;0.98;;;;;;;;;;10492341;28;20225;-68
2022/08/17 17:10:23;;;;;;;0.90;0.90;;;;;;;;;;10500193;28;20213;-67
2022/08/17 17:15:26;;;;;;;1.08;1.08;;;;;;;;;;10490875;28;20244;-67
2022/08/17 17:20:34;;;;;;;0.90;0.90;;;;;;;;;;10452467;28;20332;-67
2022/08/17 17:25:39;;;;;;;0.90;0.90;;;;;;;;;;10494043;28;20343;-68
2022/08/17 17:31:00;;;;;;;1.20;1.20;;;;;;;;;;10489013;28;20220;-67
2022/08/17 17:36:06;;;;;;;1.20;1.20;;;;;;;;;;10496310;28;20223;-68
2022/08/17 17:41:10;;;;;;;1.10;1.10;;;;;;;;;;10476724;28;20754;-68
2022/08/17 17:46:22;;;;;;;0.90;0.90;;;;;;;;;;10483474;28;20206;-68
2022/08/17 17:51:23;;;;;;;0.80;0.80;;;;;;;;;;10487411;28;20342;-68
2022/08/17 17:56:31;;;;;;;1.08;0.98;;;;;;;;;;10492308;28;20275;-69
2022/08/17 18:01:50;;;;;;;1.10;1.10;;;;;;;;;;10490828;28;20335;-67
2022/08/17 18:07:11;;;;;;;0.90;0.90;;;;;;;;;;10440865;28;20682;-67
2022/08/17 18:12:21;;;;;;;0.98;0.98;;;;;;;;;;10448817;28;20716;-69
2022/08/17 18:17:22;;;;;;;1.10;1.00;;;;;;;;;;10452739;28;20284;-68
2022/08/17 18:22:24;;;;;;;1.10;1.10;;;;;;;;;;10448821;28;20222;-66
2022/08/17 18:27:32;;;;;;;1.63;1.13;;;;;;;;;;10447512;28;20226;-67
2022/08/17 18:32:34;;;;;;;1.45;1.40;;;;;;;;;;10441173;28;20218;-67
2022/08/17 18:37:38;;;;;;;1.02;1.02;;;;;;;;;;10446509;28;20220;-68
2022/08/17 18:42:39;;;;;;;1.25;1.25;;;;;;;;;;10446444;28;20228;-67
2022/08/17 18:47:51;;;;;;;1.05;1.05;;;;;;;;;;10429712;28;20705;-68
2022/08/17 18:52:54;;;;;;;1.27;1.27;;;;;;;;;;10450336;28;20245;-68
2022/08/17 18:57:57;;;;;;;1.20;1.20;;;;;;;;;;10451348;28;20831;-68
2022/08/17 19:03:02;;;;;;;1.23;1.23;;;;;;;;;;10458381;28;20233;-68
2022/08/17 19:08:15;;;;;;;1.13;1.13;;;;;;;;;;10483556;28;20249;-68
2022/08/17 19:13:17;;;;;;;0.98;0.98;;;;;;;;;;10490283;28;20785;-69
2022/08/17 19:18:25;;;;;;;1.10;1.10;;;;;;;;;;10493744;28;20309;-69
2022/08/17 19:23:30;;;;;;;1.17;1.17;;;;;;;;;;10494249;28;20871;-69
2022/08/17 19:28:44;;;;;;;1.05;1.05;;;;;;;;;;10486750;28;20225;-68
2022/08/17 19:33:45;;;;;;;1.33;1.33;;;;;;;;;;10490909;28;20321;-69
2022/08/17 19:38:58;;;;;;;1.15;1.15;;;;;;;;;;10486317;28;20728;-72
2022/08/17 19:43:59;;;;;;;1.95;1.35;;;;;;;;;;10465074;28;20283;-71
2022/08/17 19:49:08;;;;;;;2.00;2.00;;;;;;;;;;10490058;28;20263;-72
2022/08/17 19:54:22;;;;;;;1.25;1.25;;;;;;;;;;10489263;28;20304;-71
2022/08/17 19:59:47;;;;;;;1.67;1.67;;;;;;;;;;10480866;28;20241;-71
2022/08/17 20:04:49;;;;;;;1.88;1.88;;;;;;;;;;10483062;28;20225;-71
2022/08/17 20:10:11;;;;;;;1.52;1.52;;;;;;;;;;10495892;28;20214;-71
2022/08/17 20:15:16;;;;;;;1.48;1.48;;;;;;;;;;10487699;28;20205;-71
2022/08/17 20:20:32;;;;;;;1.45;1.45;;;;;;;;;;10486334;28;20198;-71
2022/08/17 20:25:36;;;;;;;1.20;1.20;;;;;;;;;;10498760;28;20225;-71
2022/08/17 20:30:39;;;;;;;1.20;1.20;;;;;;;;;;10498742;28;20214;-71
2022/08/17 20:35:58;;;;;;;1.30;1.30;;;;;;;;;;10483679;28;20257;-71
2022/08/17 20:41:02;;;;;;;1.45;1.10;;;;;;;;;;10503473;28;20778;-71
2022/08/17 20:46:12;;;;;;;1.15;1.15;;;;;;;;;;10466483;28;20206;-72
2022/08/17 20:51:20;;;;;;;0.90;0.90;;;;;;;;;;10505758;28;20212;-71
2022/08/17 20:56:40;;;;;;;1.67;1.63;;;;;;;;;;10486447;28;20209;-72
2022/08/17 21:01:41;;;;;;;1.42;1.30;;;;;;;;;;10468063;28;20906;-71
2022/08/17 21:07:18;;;;;;;1.50;1.50;;;;;;;;;;10499211;28;20213;-71
2022/08/17 21:12:39;;;;;;;1.55;1.55;;;;;;;;;;10466813;28;21194;-71
2022/08/17 21:17:48;;;;;;;1.50;1.50;;;;;;;;;;10492641;28;20300;-70
2022/08/17 21:22:55;;;;;;;1.55;1.55;;;;;;;;;;10503959;28;20222;-71
2022/08/17 21:28:02;;;;;;;1.38;1.38;;;;;;;;;;10467581;28;20229;-72
2022/08/17 21:33:18;;;;;;;1.30;1.30;;;;;;;;;;10493450;28;20209;-71
2022/08/17 21:38:21;;;;;;;1.20;1.20;;;;;;;;;;10500313;28;20221;-72
2022/08/17 21:43:25;;;;;;;1.42;1.42;;;;;;;;;;10494515;28;20235;-72
2022/08/17 21:48:26;;;;;;;1.40;1.40;;;;;;;;;;10499428;28;20248;-72
2022/08/17 21:53:31;;;;;;;1.52;1.52;;;;;;;;;;10494300;28;20324;-72
2022/08/17 21:58:38;;;;;;;1.45;1.45;;;;;;;;;;10497014;28;20335;-71
2022/08/17 22:03:40;;;;;;;1.23;1.23;;;;;;;;;;10490099;28;20240;-72
2022/08/17 22:08:41;;;;;;;1.40;1.40;;;;;;;;;;10499313;28;20237;-72
2022/08/17 22:13:43;;;;;;;1.90;1.90;;;;;;;;;;10461204;28;20217;-71
2022/08/17 22:18:46;;;;;;;1.90;1.80;;;;;;;;;;10485259;28;20225;-71
2022/08/17 22:24:04;;;;;;;1.67;1.67;;;;;;;;;;10464809;28;20233;-72
2022/08/17 22:29:08;;;;;;;2.22;2.13;;;;;;;;;;10498012;28;20214;-72
2022/08/17 22:34:16;;;;;;;1.40;1.40;;;;;;;;;;10450961;28;20217;-72
2022/08/17 22:39:17;;;;;;;3.03;1.70;;;;;;;;;;10482077;28;20205;-72
2022/08/17 22:44:28;;;;;;;1.90;1.90;;;;;;;;;;10474925;28;20681;-72
2022/08/17 22:49:32;;;;;;;1.58;1.58;;;;;;;;;;10490933;28;20217;-72
2022/08/17 22:59:54;;;;;;;2.00;2.00;;;;;;;;;;10446990;28;20594;-71
2022/08/17 23:04:57;;;;;;;2.25;2.15;;;;;;;;;;10442799;28;20260;-72
2022/08/17 23:10:00;;;;;;;1.80;1.80;;;;;;;;;;10488646;28;20208;-72
2022/08/17 23:15:02;;;;;;;1.83;1.83;;;;;;;;;;10495606;28;20245;-72
2022/08/17 23:20:07;;;;;;;1.90;1.90;;;;;;;;;;10466560;28;20206;-71
2022/08/17 23:25:09;;;;;;;2.25;2.15;;;;;;;;;;10495024;28;20210;-72
2022/08/17 23:30:12;;;;;;;2.95;2.17;;;;;;;;;;10463720;28;20582;-72
2022/08/17 23:35:16;;;;;;;2.45;2.30;;;;;;;;;;10444734;28;20172;-70
2022/08/17 23:40:17;;;;;;;2.33;2.25;;;;;;;;;;10431194;28;20183;-70
2022/08/17 23:45:18;;;;;;;2.45;2.35;;;;;;;;;;10491804;28;20259;-71
2022/08/17 23:50:20;;;;;;;2.10;2.10;;;;;;;;;;10482728;28;20204;-72
2022/08/17 23:55:21;;;;;;;2.55;2.45;;;;;;;;;;10461367;28;20186;-72
